createdAt,value
2018-09-12T00:00:37.653Z,8.80
2018-09-12T00:03:06.337Z,10.30
2018-09-12T00:05:34.723Z,9.80
2018-09-12T00:08:03.193Z,10.80
2018-09-12T00:10:31.545Z,11.13
2018-09-12T00:12:59.929Z,10.50
2018-09-12T00:15:28.302Z,10.47
2018-09-12T00:17:56.636Z,10.97
2018-09-12T00:20:25.015Z,11.77
2018-09-12T00:22:53.400Z,10.90
2018-09-12T00:25:21.752Z,10.63
2018-09-12T00:27:50.128Z,11.10
2018-09-12T00:30:18.481Z,12.17
2018-09-12T00:32:46.889Z,12.30
2018-09-12T00:35:15.237Z,12.40
2018-09-12T00:37:43.576Z,12.93
2018-09-12T00:40:11.981Z,12.43
2018-09-12T00:42:40.356Z,12.30
2018-09-12T00:45:08.764Z,11.60
2018-09-12T00:47:38.026Z,12.90
2018-09-12T00:50:06.405Z,12.83
2018-09-12T00:52:34.723Z,13.57
2018-09-12T00:55:03.075Z,13.73
2018-09-12T00:57:31.409Z,13.77
2018-09-12T01:00:00.133Z,13.33
2018-09-12T01:02:28.479Z,14.20
2018-09-12T01:04:56.868Z,14.93
2018-09-12T01:07:25.223Z,13.13
2018-09-12T01:09:53.594Z,13.90
2018-09-12T01:12:21.909Z,13.37
2018-09-12T01:14:50.302Z,14.73
2018-09-12T01:17:18.673Z,14.33
2018-09-12T01:19:47.030Z,14.80
2018-09-12T01:22:15.728Z,15.60
2018-09-12T01:24:44.218Z,15.77
2018-09-12T01:27:12.534Z,17.07
2018-09-12T01:29:40.868Z,16.33
2018-09-12T01:32:09.261Z,18.40
2018-09-12T01:34:37.629Z,17.23
2018-09-12T01:37:05.978Z,17.83
2018-09-12T01:39:34.320Z,17.90
2018-09-12T01:42:02.702Z,18.30
2018-09-12T01:44:31.038Z,17.50
2018-09-12T01:46:59.367Z,18.03
2018-09-12T01:49:27.742Z,19.13
2018-09-12T01:51:56.129Z,19.53
2018-09-12T01:54:24.791Z,18.90
2018-09-12T01:56:53.137Z,18.90
2018-09-12T01:59:21.538Z,19.70
2018-09-12T02:01:49.956Z,20.93
2018-09-12T02:04:18.394Z,20.03
2018-09-12T02:06:46.732Z,18.13
2018-09-12T02:09:15.707Z,18.83
2018-09-12T02:11:44.064Z,18.43
2018-09-12T02:14:12.465Z,18.57
2018-09-12T02:16:40.872Z,18.67
2018-09-12T02:19:09.218Z,19.47
2018-09-12T02:21:37.568Z,19.83
2018-09-12T02:24:05.987Z,18.30
2018-09-12T02:26:34.362Z,19.53
2018-09-12T02:29:02.757Z,19.30
2018-09-12T02:31:31.467Z,19.77
2018-09-12T02:34:00.051Z,19.83
2018-09-12T02:36:29.477Z,20.07
2018-09-12T02:38:59.472Z,20.43
2018-09-12T02:41:27.977Z,19.93
2018-09-12T02:43:56.350Z,19.87
2018-09-12T02:46:24.810Z,19.93
2018-09-12T02:48:53.634Z,19.53
2018-09-12T02:51:22.042Z,18.33
2018-09-12T02:53:50.390Z,18.90
2018-09-12T02:56:19.202Z,18.73
2018-09-12T02:58:48.405Z,16.87
2018-09-12T03:01:16.904Z,15.63
2018-09-12T03:03:45.448Z,13.63
2018-09-12T03:06:14.442Z,13.40
2018-09-12T03:08:43.370Z,12.53
2018-09-12T03:11:12.062Z,13.07
2018-09-12T03:13:40.664Z,12.07
2018-09-12T03:16:09.211Z,13.63
2018-09-12T03:18:37.747Z,13.70
2018-09-12T03:21:06.889Z,15.00
2018-09-12T03:23:35.357Z,14.40
2018-09-12T03:26:03.992Z,15.93
2018-09-12T03:28:32.447Z,16.10
2018-09-12T03:31:00.944Z,16.17
2018-09-12T03:33:29.778Z,16.87
2018-09-12T03:35:58.745Z,17.00
2018-09-12T03:38:27.671Z,17.40
2018-09-12T03:40:56.609Z,17.07
2018-09-12T03:43:26.084Z,18.50
2018-09-12T03:45:54.933Z,18.53
2018-09-12T03:48:23.477Z,19.67
2018-09-12T03:52:21.040Z,20.97
2018-09-12T03:54:49.481Z,19.70
2018-09-12T03:57:17.916Z,19.77
2018-09-12T03:59:46.347Z,21.23
2018-09-12T04:02:14.695Z,21.10
2018-09-12T04:04:43.044Z,20.57
2018-09-12T04:07:11.361Z,21.27
2018-09-12T04:09:39.720Z,21.47
2018-09-12T04:12:08.491Z,20.43
2018-09-12T04:14:36.853Z,22.30
2018-09-12T04:17:05.526Z,22.60
2018-09-12T04:19:33.849Z,21.63
2018-09-12T04:22:02.254Z,21.30
2018-09-12T04:24:30.611Z,22.20
2018-09-12T04:26:59.004Z,22.53
2018-09-12T04:29:27.371Z,22.27
2018-09-12T04:38:42.689Z,21.97
2018-09-12T04:41:11.064Z,21.27
2018-09-12T04:43:39.432Z,22.60
2018-09-12T04:46:08.093Z,23.20
2018-09-12T04:48:36.523Z,22.63
2018-09-12T04:51:04.854Z,22.07
2018-09-12T04:53:33.200Z,21.40
2018-09-12T04:56:01.562Z,22.90
2018-09-12T04:58:29.936Z,23.67
2018-09-12T05:00:58.389Z,22.17
2018-09-12T05:03:26.767Z,22.23
2018-09-12T05:05:55.093Z,22.87
2018-09-12T05:08:23.444Z,22.20
2018-09-12T05:10:51.796Z,22.73
2018-09-12T05:13:20.139Z,21.57
2018-09-12T05:15:48.510Z,21.17
2018-09-12T05:18:16.928Z,22.20
2018-09-12T05:20:45.266Z,22.30
2018-09-12T05:23:13.617Z,23.20
2018-09-12T05:25:42.001Z,21.47
2018-09-12T05:28:10.350Z,21.63
2018-09-12T05:30:38.691Z,22.63
2018-09-12T05:33:07.059Z,22.33
2018-09-12T05:35:35.474Z,21.97
2018-09-12T05:38:03.843Z,22.80
2018-09-12T05:40:32.214Z,21.63
2018-09-12T05:43:00.556Z,22.10
2018-09-12T05:45:28.886Z,21.43
2018-09-12T05:47:57.201Z,20.53
2018-09-12T05:50:25.546Z,21.53
2018-09-12T05:52:53.878Z,21.17
2018-09-12T05:55:22.246Z,22.70
2018-09-12T05:57:50.672Z,23.47
2018-09-12T06:00:21.742Z,21.60
2018-09-12T06:02:51.504Z,22.13
2018-09-12T06:05:20.192Z,22.10
2018-09-12T06:07:48.837Z,21.17
2018-09-12T06:10:17.178Z,21.00
2018-09-12T06:12:46.647Z,22.37
2018-09-12T06:15:15.062Z,21.33
2018-09-12T06:17:43.478Z,22.23
2018-09-12T06:20:12.228Z,22.70
2018-09-12T06:22:40.961Z,22.70
2018-09-12T06:25:09.480Z,24.23
2018-09-12T06:27:39.407Z,23.10
2018-09-12T06:30:09.527Z,23.77
2018-09-12T06:32:37.929Z,25.00
2018-09-12T06:35:06.479Z,23.13
2018-09-12T06:37:34.870Z,25.83
2018-09-12T06:40:03.298Z,25.27
2018-09-12T06:42:31.813Z,24.60
2018-09-12T06:45:00.468Z,23.67
2018-09-12T06:47:28.823Z,23.80
2018-09-12T06:49:57.175Z,24.57
2018-09-12T06:52:25.564Z,25.47
2018-09-12T06:54:54.218Z,24.47
2018-09-12T06:57:22.875Z,23.73
2018-09-12T06:59:51.599Z,23.60
2018-09-12T07:02:19.999Z,23.93
2018-09-12T07:04:48.360Z,24.47
2018-09-12T07:07:16.728Z,23.87
2018-09-12T07:09:45.097Z,23.83
2018-09-12T07:12:13.679Z,25.40
2018-09-12T07:14:42.156Z,24.80
2018-09-12T07:17:10.894Z,25.70
2018-09-12T07:19:39.419Z,24.33
2018-09-12T07:22:07.895Z,24.50
2018-09-12T07:24:36.415Z,23.03
2018-09-12T07:27:04.689Z,23.80
2018-09-12T07:29:33.113Z,24.30
2018-09-12T07:32:01.624Z,25.03
2018-09-12T07:34:30.102Z,24.40
2018-09-12T07:36:58.669Z,23.93
2018-09-12T07:39:27.191Z,23.87
2018-09-12T07:41:55.639Z,23.03
2018-09-12T07:44:24.042Z,23.40
2018-09-12T07:46:52.483Z,23.77
2018-09-12T07:49:20.913Z,23.20
2018-09-12T07:51:49.363Z,24.10
2018-09-12T07:54:17.841Z,23.07
2018-09-12T07:56:46.352Z,23.63
2018-09-12T07:59:14.752Z,24.47
2018-09-12T08:01:43.174Z,23.63
2018-09-12T08:04:11.568Z,24.57
2018-09-12T08:06:39.911Z,22.53
2018-09-12T08:09:10.826Z,24.33
2018-09-12T08:11:39.212Z,24.77
2018-09-12T08:14:07.962Z,23.07
2018-09-12T08:16:36.336Z,23.10
2018-09-12T08:19:04.976Z,21.67
2018-09-12T08:21:33.396Z,22.43
2018-09-12T08:24:02.103Z,21.90
2018-09-12T08:26:30.864Z,14.43
2018-09-12T08:28:59.286Z,5.10
2018-09-12T08:31:28.024Z,3.67
2018-09-12T08:33:56.780Z,4.23
2018-09-12T08:36:25.335Z,3.30
2018-09-12T08:38:53.726Z,2.37
2018-09-12T08:41:22.140Z,2.93
2018-09-12T08:43:50.938Z,2.80
2018-09-12T08:46:19.316Z,3.00
2018-09-12T08:48:48.297Z,3.17
2018-09-12T08:51:16.729Z,3.50
2018-09-12T08:53:45.107Z,3.50
2018-09-12T08:56:13.599Z,2.93
2018-09-12T08:58:42.917Z,2.33
2018-09-12T09:01:11.287Z,2.40
2018-09-12T09:03:40.212Z,1.90
2018-09-12T09:06:09.532Z,2.20
2018-09-12T09:08:38.019Z,1.70
2018-09-12T09:11:06.445Z,1.60
2018-09-12T09:13:34.778Z,1.73
2018-09-12T09:16:03.528Z,1.83
2018-09-12T09:18:31.932Z,1.87
2018-09-12T09:21:00.306Z,2.30
2018-09-12T09:23:28.721Z,1.60
2018-09-12T09:25:57.114Z,1.73
2018-09-12T09:28:25.432Z,2.07
2018-09-12T09:30:54.187Z,2.00
2018-09-12T09:33:22.627Z,2.17
2018-09-12T09:35:51.173Z,2.23
2018-09-12T09:38:19.587Z,2.17
2018-09-12T09:40:47.992Z,2.00
2018-09-12T09:43:16.662Z,1.87
2018-09-12T09:45:45.058Z,2.00
2018-09-12T09:48:13.667Z,1.80
2018-09-12T09:50:41.989Z,2.00
2018-09-12T09:53:10.369Z,1.90
2018-09-12T09:55:38.793Z,2.30
2018-09-12T09:58:07.193Z,1.90
2018-09-12T10:00:40.909Z,1.97
2018-09-12T10:03:14.789Z,2.30
2018-09-12T10:05:48.640Z,2.17
2018-09-12T10:08:22.462Z,2.10
2018-09-12T10:10:51.804Z,1.93
2018-09-12T10:16:13.088Z,2.00
2018-09-12T10:18:42.732Z,2.33
2018-09-12T10:21:11.369Z,2.33
2018-09-12T10:23:39.721Z,2.60
2018-09-12T10:26:08.155Z,2.13
2018-09-12T10:28:36.510Z,2.30
2018-09-12T10:31:04.973Z,2.33
2018-09-12T10:33:33.392Z,2.47
2018-09-12T10:36:01.801Z,2.60
2018-09-12T10:38:30.212Z,2.47
2018-09-12T10:40:58.613Z,2.43
2018-09-12T10:43:26.984Z,2.80
2018-09-12T10:45:55.370Z,2.40
2018-09-12T10:48:23.944Z,2.17
2018-09-12T10:50:52.356Z,2.13
2018-09-12T10:53:20.805Z,2.33
2018-09-12T10:55:49.584Z,2.40
2018-09-12T10:58:17.985Z,2.60
2018-09-12T11:00:46.428Z,2.60
2018-09-12T11:03:14.821Z,2.63
2018-09-12T11:05:43.264Z,2.40
2018-09-12T11:08:11.625Z,2.40
2018-09-12T11:10:40.035Z,2.20
2018-09-12T11:13:08.462Z,1.83
2018-09-12T11:15:36.842Z,2.00
2018-09-12T11:18:05.374Z,1.60
2018-09-12T11:20:33.770Z,1.83
2018-09-12T11:23:02.140Z,1.73
2018-09-12T11:25:30.561Z,2.20
2018-09-12T11:27:59.072Z,2.00
2018-09-12T11:30:27.566Z,1.70
2018-09-12T11:32:56.033Z,2.23
2018-09-12T11:35:24.741Z,1.70
2018-09-12T11:37:53.085Z,1.73
2018-09-12T11:40:21.537Z,1.43
2018-09-12T11:42:50.041Z,1.33
2018-09-12T11:45:18.466Z,1.33
2018-09-12T11:47:47.688Z,1.30
2018-09-12T11:50:16.552Z,1.30
2018-09-12T11:52:44.949Z,1.37
2018-09-12T11:55:13.383Z,1.60
2018-09-12T11:57:41.995Z,1.90
2018-09-12T12:00:10.366Z,1.80
2018-09-12T12:02:39.114Z,1.83
2018-09-12T12:05:07.764Z,1.70
2018-09-12T12:07:36.123Z,1.40
2018-09-12T12:10:04.589Z,1.50
2018-09-12T12:12:33.113Z,1.97
2018-09-12T12:15:03.013Z,1.90
2018-09-12T12:17:31.637Z,1.60
2018-09-12T12:20:00.005Z,1.90
2018-09-12T12:22:28.381Z,1.53
2018-09-12T12:24:56.765Z,1.80
2018-09-12T12:27:25.434Z,1.83
2018-09-12T12:29:53.792Z,1.90
2018-09-12T12:32:22.130Z,1.87
2018-09-12T12:34:50.466Z,1.67
2018-09-12T12:37:18.836Z,1.70
2018-09-12T12:39:47.507Z,1.60
2018-09-12T12:42:15.915Z,1.77
2018-09-12T12:44:44.416Z,1.80
2018-09-12T12:47:12.820Z,1.70
2018-09-12T12:49:41.492Z,2.00
2018-09-12T12:52:10.232Z,2.00
2018-09-12T12:54:38.590Z,2.07
2018-09-12T12:57:07.272Z,2.40
2018-09-12T12:59:35.726Z,2.47
2018-09-12T13:02:04.104Z,2.60
2018-09-12T13:04:32.500Z,2.70
2018-09-12T13:07:00.912Z,2.30
2018-09-12T13:09:29.713Z,2.57
2018-09-12T13:11:58.098Z,2.80
2018-09-12T13:14:26.548Z,2.87
2018-09-12T13:16:54.875Z,2.80
2018-09-12T13:19:23.577Z,2.87
2018-09-12T13:21:52.376Z,2.90
2018-09-12T13:24:20.739Z,3.80
2018-09-12T13:26:49.251Z,3.10
2018-09-12T13:29:18.261Z,3.33
2018-09-12T13:31:46.695Z,2.73
2018-09-12T13:34:15.136Z,2.00
2018-09-12T13:36:44.765Z,2.10
2018-09-12T13:39:14.873Z,2.33
2018-09-12T13:41:43.321Z,1.93
2018-09-12T13:44:11.741Z,1.13
2018-09-12T13:46:40.177Z,1.10
2018-09-12T13:49:08.627Z,1.70
2018-09-12T13:51:37.671Z,1.60
2018-09-12T13:54:06.075Z,1.80
2018-09-12T13:56:34.512Z,2.17
2018-09-12T13:59:03.274Z,2.20
2018-09-12T14:01:32.001Z,1.60
2018-09-12T14:04:00.417Z,2.00
2018-09-12T14:06:28.817Z,1.60
2018-09-12T14:08:57.272Z,1.33
2018-09-12T14:11:25.824Z,1.73
2018-09-12T14:13:54.348Z,2.10
2018-09-12T14:16:23.376Z,1.80
2018-09-12T14:18:52.353Z,2.03
2018-09-12T14:21:21.118Z,2.00
2018-09-12T14:23:49.668Z,2.40
2018-09-12T14:26:18.397Z,2.70
2018-09-12T14:28:46.910Z,2.47
2018-09-12T14:31:16.337Z,2.33
2018-09-12T14:33:44.824Z,2.30
2018-09-12T14:36:13.427Z,2.40
2018-09-12T14:38:42.452Z,2.27
2018-09-12T14:41:10.865Z,2.37
2018-09-12T14:43:40.367Z,2.27
2018-09-12T14:46:09.220Z,2.07
2018-09-12T14:48:37.701Z,2.70
2018-09-12T14:51:06.729Z,2.80
2018-09-12T14:53:35.159Z,2.67
2018-09-12T14:56:03.976Z,2.40
2018-09-12T14:58:32.448Z,2.30
2018-09-12T15:01:00.927Z,2.20
2018-09-12T15:03:29.408Z,1.70
2018-09-12T15:05:59.315Z,1.60
2018-09-12T15:08:27.895Z,1.47
2018-09-12T15:10:56.344Z,1.70
2018-09-12T15:13:24.745Z,1.60
2018-09-12T15:15:53.548Z,1.90
2018-09-12T15:18:21.906Z,1.70
2018-09-12T15:20:50.374Z,1.90
2018-09-12T15:23:18.750Z,1.87
2018-09-12T15:25:47.236Z,2.00
2018-09-12T15:28:15.857Z,1.70
2018-09-12T15:30:44.347Z,1.47
2018-09-12T15:33:12.802Z,1.77
2018-09-12T15:35:41.607Z,1.60
2018-09-12T15:38:10.122Z,1.73
2018-09-12T15:40:38.954Z,1.47
2018-09-12T15:43:07.592Z,1.60
2018-09-12T15:45:36.114Z,1.50
2018-09-12T15:48:04.533Z,1.67
2018-09-12T15:50:32.949Z,1.67
2018-09-12T15:53:01.647Z,1.40
2018-09-12T15:55:30.108Z,1.63
2018-09-12T15:57:58.819Z,1.40
2018-09-12T16:00:27.077Z,1.50
2018-09-12T16:02:55.661Z,1.20
2018-09-12T16:05:24.185Z,1.40
2018-09-12T16:07:52.973Z,1.00
2018-09-12T16:10:21.542Z,1.40
2018-09-12T16:12:51.360Z,1.43
2018-09-12T16:15:20.545Z,1.63
2018-09-12T16:17:49.133Z,1.30
2018-09-12T16:20:17.514Z,1.27
2018-09-12T16:22:46.143Z,1.33
2018-09-12T16:25:14.509Z,1.67
2018-09-12T16:27:42.937Z,1.20
2018-09-12T16:30:11.360Z,1.27
2018-09-12T16:32:41.370Z,1.27
2018-09-12T16:35:10.375Z,1.50
2018-09-12T16:37:38.769Z,1.20
2018-09-12T16:40:07.385Z,1.00
2018-09-12T16:42:35.843Z,1.10
2018-09-12T16:45:04.272Z,1.10
2018-09-12T16:47:32.703Z,1.47
2018-09-12T16:50:01.116Z,1.50
2018-09-12T16:52:29.852Z,1.50
2018-09-12T16:54:58.332Z,1.50
2018-09-12T16:57:27.314Z,1.40
2018-09-12T16:59:55.927Z,1.33
2018-09-12T17:02:24.709Z,1.47
2018-09-12T17:04:53.495Z,1.60
2018-09-12T17:07:22.015Z,1.63
2018-09-12T17:09:50.926Z,1.47
2018-09-12T17:12:19.436Z,1.60
2018-09-12T17:14:47.997Z,1.30
2018-09-12T17:17:16.788Z,1.87
2018-09-12T17:19:45.310Z,1.87
2018-09-12T17:22:13.738Z,1.80
2018-09-12T17:24:42.114Z,1.83
2018-09-12T17:27:10.676Z,1.70
2018-09-12T17:29:39.140Z,2.10
2018-09-12T17:32:07.583Z,1.83
2018-09-12T17:34:36.214Z,2.20
2018-09-12T17:37:05.699Z,2.10
2018-09-12T17:39:34.136Z,1.90
2018-09-12T17:42:02.564Z,2.23
2018-09-12T17:44:30.949Z,1.67
2018-09-12T17:46:59.377Z,1.73
2018-09-12T17:49:27.765Z,2.03
2018-09-12T17:51:56.232Z,2.27
2018-09-12T17:54:24.658Z,2.10
2018-09-12T17:56:53.513Z,2.13
2018-09-12T17:59:22.036Z,1.97
2018-09-12T18:01:50.424Z,2.00
2018-09-12T18:04:20.437Z,1.90
2018-09-12T18:06:49.900Z,1.87
2018-09-12T18:09:18.317Z,1.97
2018-09-12T18:11:46.765Z,1.50
2018-09-12T18:14:15.098Z,1.67
2018-09-12T18:16:43.537Z,1.67
2018-09-12T18:19:12.428Z,1.20
2018-09-12T18:21:41.869Z,1.57
2018-09-12T18:24:10.348Z,1.30
2018-09-12T18:26:38.707Z,1.53
2018-09-12T18:29:07.216Z,1.50
2018-09-12T18:31:35.709Z,1.60
2018-09-12T18:34:04.181Z,1.67
2018-09-12T18:36:32.659Z,1.50
2018-09-12T18:39:01.151Z,1.60
2018-09-12T18:41:29.548Z,1.47
2018-09-12T18:43:57.992Z,1.50
2018-09-12T18:46:26.436Z,1.40
2018-09-12T18:48:54.963Z,1.80
2018-09-12T18:51:23.360Z,1.23
2018-09-12T18:53:51.972Z,1.90
2018-09-12T18:56:20.335Z,1.83
2018-09-12T18:58:49.470Z,1.83
2018-09-12T19:01:17.824Z,2.03
2018-09-12T19:03:46.216Z,2.07
2018-09-12T19:06:14.687Z,2.17
2018-09-12T19:08:43.160Z,1.67
2018-09-12T19:11:11.622Z,1.90
2018-09-12T19:13:40.467Z,2.10
2018-09-12T19:16:08.841Z,1.80
2018-09-12T19:18:37.869Z,1.80
2018-09-12T19:21:08.140Z,2.00
2018-09-12T19:23:36.919Z,2.13
2018-09-12T19:26:06.105Z,2.17
2018-09-12T19:28:35.658Z,1.90
2018-09-12T19:31:04.126Z,1.80
2018-09-12T19:33:32.515Z,1.43
2018-09-12T19:36:01.033Z,1.70
2018-09-12T19:38:29.362Z,1.77
2018-09-12T19:40:57.708Z,1.90
2018-09-12T19:43:26.142Z,2.23
2018-09-12T19:45:54.637Z,2.43
2018-09-12T19:48:23.120Z,1.93
2018-09-12T19:50:51.511Z,1.90
2018-09-12T19:53:19.963Z,2.00
2018-09-12T19:55:48.345Z,2.00
2018-09-12T19:58:16.785Z,2.40
2018-09-12T20:00:45.438Z,2.60
2018-09-12T20:03:14.230Z,2.00
2018-09-12T20:05:42.627Z,2.40
2018-09-12T20:08:11.143Z,2.43
2018-09-12T20:10:39.872Z,2.43
2018-09-12T20:13:08.242Z,2.47
2018-09-12T20:15:36.674Z,2.80
2018-09-12T20:18:05.127Z,2.47
2018-09-12T20:20:33.534Z,2.27
2018-09-12T20:23:01.925Z,1.90
2018-09-12T20:25:30.305Z,2.10
2018-09-12T20:27:58.673Z,2.30
2018-09-12T20:30:27.051Z,1.97
2018-09-12T20:32:55.439Z,1.63
2018-09-12T20:35:23.813Z,2.00
2018-09-12T20:37:52.188Z,1.97
2018-09-12T20:40:20.573Z,2.17
2018-09-12T20:42:48.934Z,2.60
2018-09-12T20:45:17.464Z,2.10
2018-09-12T20:47:45.781Z,2.07
2018-09-12T20:50:15.041Z,2.47
2018-09-12T20:52:44.224Z,2.10
2018-09-12T20:55:12.603Z,2.20
2018-09-12T20:57:41.789Z,2.20
2018-09-12T21:00:10.469Z,2.33
2018-09-12T21:02:39.552Z,2.00
2018-09-12T21:05:08.995Z,2.47
2018-09-12T21:07:37.764Z,2.37
2018-09-12T21:10:06.938Z,2.27
2018-09-12T21:12:35.811Z,2.80
2018-09-12T21:15:04.392Z,2.50
2018-09-12T21:17:34.729Z,2.50
2018-09-12T21:20:03.215Z,2.40
2018-09-12T21:22:31.918Z,2.10
2018-09-12T21:25:00.405Z,1.93
2018-09-12T21:27:29.202Z,2.40
2018-09-12T21:29:58.202Z,2.47
2018-09-12T21:32:26.854Z,2.20
2018-09-12T21:34:56.060Z,2.13
2018-09-12T21:37:25.282Z,2.40
2018-09-12T21:39:54.881Z,2.07
2018-09-12T21:42:23.945Z,2.27
2018-09-12T21:44:55.927Z,1.90
2018-09-12T21:47:25.465Z,2.50
2018-09-12T21:49:53.885Z,2.57
2018-09-12T21:52:22.351Z,2.63
2018-09-12T21:54:50.912Z,1.90
2018-09-12T21:57:19.430Z,1.93
2018-09-12T21:59:47.801Z,2.30
2018-09-12T22:02:16.204Z,2.03
2018-09-12T22:04:44.546Z,1.83
2018-09-12T22:10:23.008Z,1.83
2018-09-12T22:12:51.413Z,2.00
2018-09-12T22:15:19.805Z,1.90
2018-09-12T22:17:48.352Z,2.03
2018-09-12T22:20:16.714Z,1.97
2018-09-12T22:22:45.047Z,1.93
2018-09-12T22:25:13.560Z,2.10
2018-09-12T22:27:42.210Z,1.67
2018-09-12T22:30:10.988Z,2.00
2018-09-12T22:32:39.327Z,2.10
2018-09-12T22:35:07.725Z,1.90
2018-09-12T22:37:36.131Z,1.70
2018-09-12T22:40:04.514Z,1.87
2018-09-12T22:42:32.930Z,2.00
2018-09-12T22:45:01.351Z,1.97
2018-09-12T22:47:29.813Z,2.10
2018-09-12T22:49:58.213Z,1.73
2018-09-12T22:52:26.585Z,2.23
2018-09-12T22:54:54.939Z,1.87
2018-09-12T22:57:23.381Z,1.93
2018-09-12T22:59:52.442Z,1.80
2018-09-12T23:02:20.757Z,2.27
2018-09-12T23:04:49.089Z,2.13
2018-09-12T23:07:17.454Z,1.97
2018-09-12T23:09:45.811Z,2.07
2018-09-12T23:12:14.149Z,2.10
2018-09-12T23:14:42.493Z,2.23
2018-09-12T23:17:10.931Z,1.90
2018-09-12T23:19:39.664Z,2.50
2018-09-12T23:22:08.054Z,2.17
2018-09-12T23:24:36.392Z,2.13
2018-09-12T23:27:04.913Z,2.03
2018-09-12T23:29:33.296Z,1.97
2018-09-12T23:32:02.245Z,2.10
2018-09-12T23:34:30.926Z,2.10
2018-09-12T23:36:59.501Z,1.77
2018-09-12T23:39:28.286Z,2.50
2018-09-12T23:41:56.646Z,2.40
2018-09-12T23:44:25.004Z,2.57
2018-09-12T23:46:53.356Z,2.30
2018-09-12T23:49:21.727Z,1.90
2018-09-12T23:51:50.113Z,2.10
2018-09-12T23:54:18.473Z,2.10
2018-09-12T23:56:46.859Z,2.57
2018-09-12T23:59:15.186Z,1.80
